EZY416 EGPH-EGSS
Flight info
| Callsign | EZY416 |
|---|---|
| Flight time | 1h 4m |
| Altitude | 33000 |
| Route | GOSAM P600 FENIK L612 ELBUS UL612 LISTO |
| Aircraft | A20N/M-SDE2E3FGHIRWXY/LB1 |
Departure
| Time | 2026-05-01 13:19 |
|---|---|
| Airport | Edinburgh Airport (EGPH) |
Arrival
| Time | 2026-05-01 14:24 |
|---|---|
| Airport | London Stansted Airport (EGSS) |
| Time | Latitude | Longitude | Altitude | Speed | Heading |
|---|---|---|---|---|---|
| 2026-05-01 12:40 | 55.94835 | -3.35808 | 112 ft | 0 kts | 206° |
| 2026-05-01 13:11 | 55.94846 | -3.35799 | 110 ft | 4 kts | 208° |
| 2026-05-01 13:11 | 55.94868 | -3.35774 | 108 ft | 4 kts | 219° |
| 2026-05-01 13:12 | 55.94886 | -3.35740 | 112 ft | 4 kts | 250° |
| 2026-05-01 13:12 | 55.94888 | -3.35710 | 111 ft | 0 kts | 298° |
| 2026-05-01 13:16 | 55.94901 | -3.35753 | 112 ft | 9 kts | 298° |
| 2026-05-01 13:16 | 55.94966 | -3.35870 | 111 ft | 15 kts | 351° |
| 2026-05-01 13:16 | 55.95059 | -3.35794 | 111 ft | 17 kts | 18° |
| 2026-05-01 13:17 | 55.95288 | -3.35832 | 111 ft | 18 kts | 59° |
| 2026-05-01 13:17 | 55.95358 | -3.35620 | 112 ft | 22 kts | 60° |
| 2026-05-01 13:18 | 55.95505 | -3.35458 | 111 ft | 14 kts | 327° |
| 2026-05-01 13:18 | 55.95569 | -3.35563 | 113 ft | 11 kts | 262° |
| 2026-05-01 13:18 | 55.95524 | -3.35699 | 112 ft | 16 kts | 238° |
| 2026-05-01 13:18 | 55.95374 | -3.36134 | 107 ft | 78 kts | 237° |
| 2026-05-01 13:19 | 55.94984 | -3.37283 | 111 ft | 136 kts | 239° |
| 2026-05-01 13:19 | 55.94458 | -3.38846 | 707 ft | 146 kts | 239° |
| 2026-05-01 13:19 | 55.93381 | -3.41990 | 2565 ft | 145 kts | 235° |
| 2026-05-01 13:20 | 55.92823 | -3.43554 | 3119 ft | 157 kts | 234° |
| 2026-05-01 13:20 | 55.92211 | -3.45301 | 3604 ft | 176 kts | 236° |
| 2026-05-01 13:20 | 55.91536 | -3.47254 | 4205 ft | 195 kts | 236° |
| 2026-05-01 13:21 | 55.90294 | -3.52131 | 5471 ft | 241 kts | 255° |
| 2026-05-01 13:21 | 55.89992 | -3.55230 | 6105 ft | 263 kts | 257° |
| 2026-05-01 13:21 | 55.89694 | -3.58458 | 7224 ft | 264 kts | 257° |
| 2026-05-01 13:21 | 55.89388 | -3.61711 | 8308 ft | 269 kts | 257° |
| 2026-05-01 13:22 | 55.89053 | -3.65030 | 9365 ft | 273 kts | 252° |
| 2026-05-01 13:22 | 55.88234 | -3.67992 | 10342 ft | 272 kts | 228° |
| 2026-05-01 13:22 | 55.86749 | -3.70196 | 10909 ft | 290 kts | 211° |
| 2026-05-01 13:22 | 55.84938 | -3.72075 | 11342 ft | 313 kts | 208° |
| 2026-05-01 13:23 | 55.82987 | -3.73957 | 12064 ft | 322 kts | 207° |
| 2026-05-01 13:23 | 55.81009 | -3.75879 | 13066 ft | 325 kts | 208° |
| 2026-05-01 13:23 | 55.79013 | -3.77858 | 13972 ft | 331 kts | 208° |
| 2026-05-01 13:23 | 55.77000 | -3.79884 | 14804 ft | 334 kts | 208° |
| 2026-05-01 13:24 | 55.74978 | -3.81937 | 15617 ft | 338 kts | 209° |
| 2026-05-01 13:24 | 55.72902 | -3.84049 | 16459 ft | 342 kts | 209° |
| 2026-05-01 13:24 | 55.70836 | -3.86153 | 17262 ft | 347 kts | 209° |
| 2026-05-01 13:25 | 55.67291 | -3.89753 | 18571 ft | 354 kts | 209° |
| 2026-05-01 13:25 | 55.65147 | -3.91925 | 19330 ft | 357 kts | 208° |
| 2026-05-01 13:25 | 55.62962 | -3.93972 | 20037 ft | 359 kts | 200° |
| 2026-05-01 13:25 | 55.60518 | -3.94937 | 20726 ft | 362 kts | 183° |
| 2026-05-01 13:26 | 55.57999 | -3.94557 | 21420 ft | 367 kts | 171° |
| 2026-05-01 13:26 | 55.55485 | -3.93648 | 22104 ft | 371 kts | 169° |
| 2026-05-01 13:26 | 55.52950 | -3.92646 | 22783 ft | 374 kts | 169° |
| 2026-05-01 13:26 | 55.50410 | -3.91536 | 23452 ft | 379 kts | 162° |
| 2026-05-01 13:27 | 55.47953 | -3.89744 | 24028 ft | 384 kts | 159° |
| 2026-05-01 13:27 | 55.45483 | -3.87856 | 24567 ft | 388 kts | 159° |
| 2026-05-01 13:27 | 55.40485 | -3.84012 | 25638 ft | 395 kts | 158° |
| 2026-05-01 13:28 | 55.35410 | -3.80130 | 26685 ft | 401 kts | 159° |
| 2026-05-01 13:28 | 55.32838 | -3.78171 | 27168 ft | 404 kts | 159° |
| 2026-05-01 13:29 | 55.27631 | -3.74218 | 28148 ft | 410 kts | 159° |
| 2026-05-01 13:29 | 55.22349 | -3.70215 | 29054 ft | 416 kts | 159° |
| 2026-05-01 13:30 | 55.11556 | -3.62077 | 30740 ft | 428 kts | 159° |
| 2026-05-01 13:31 | 55.06048 | -3.57943 | 31456 ft | 432 kts | 159° |
| 2026-05-01 13:31 | 54.97745 | -3.51733 | 32815 ft | 432 kts | 159° |
| 2026-05-01 13:32 | 54.92237 | -3.47629 | 33127 ft | 430 kts | 159° |
| 2026-05-01 13:33 | 54.78481 | -3.37443 | 33122 ft | 430 kts | 159° |
| 2026-05-01 13:34 | 54.67418 | -3.29300 | 33142 ft | 431 kts | 159° |
| 2026-05-01 13:35 | 54.59120 | -3.23224 | 33145 ft | 431 kts | 159° |
| 2026-05-01 13:36 | 54.50826 | -3.17177 | 33136 ft | 431 kts | 159° |
| 2026-05-01 13:36 | 54.42537 | -3.11161 | 33133 ft | 430 kts | 159° |
| 2026-05-01 13:37 | 54.37013 | -3.07166 | 33135 ft | 430 kts | 159° |
| 2026-05-01 13:37 | 54.31483 | -3.03178 | 33133 ft | 431 kts | 159° |
| 2026-05-01 13:38 | 54.23197 | -2.97161 | 33138 ft | 431 kts | 159° |
| 2026-05-01 13:39 | 54.17724 | -2.93168 | 33141 ft | 431 kts | 159° |
| 2026-05-01 13:39 | 54.12193 | -2.89146 | 33139 ft | 431 kts | 159° |
| 2026-05-01 13:40 | 54.06673 | -2.85146 | 33146 ft | 431 kts | 159° |
| 2026-05-01 13:40 | 54.01143 | -2.81151 | 33144 ft | 431 kts | 159° |
| 2026-05-01 13:41 | 53.95607 | -2.77162 | 33151 ft | 431 kts | 159° |
| 2026-05-01 13:41 | 53.90109 | -2.73213 | 33155 ft | 431 kts | 159° |
| 2026-05-01 13:42 | 53.84576 | -2.69250 | 33155 ft | 432 kts | 159° |
| 2026-05-01 13:42 | 53.79033 | -2.65292 | 33156 ft | 432 kts | 159° |
| 2026-05-01 13:43 | 53.73495 | -2.61348 | 33155 ft | 432 kts | 159° |
| 2026-05-01 13:43 | 53.67962 | -2.57419 | 33150 ft | 432 kts | 159° |
| 2026-05-01 13:44 | 53.62577 | -2.53606 | 33156 ft | 432 kts | 159° |
| 2026-05-01 13:44 | 53.57032 | -2.49691 | 33149 ft | 432 kts | 159° |
| 2026-05-01 13:45 | 53.51515 | -2.45806 | 33156 ft | 432 kts | 159° |
| 2026-05-01 13:45 | 53.45971 | -2.41913 | 33157 ft | 432 kts | 159° |
| 2026-05-01 13:46 | 53.40434 | -2.38036 | 33154 ft | 432 kts | 159° |
| 2026-05-01 13:46 | 53.34872 | -2.34153 | 33160 ft | 432 kts | 159° |
| 2026-05-01 13:47 | 53.29312 | -2.30283 | 33158 ft | 432 kts | 159° |
| 2026-05-01 13:47 | 53.23756 | -2.26425 | 33160 ft | 432 kts | 159° |
| 2026-05-01 13:48 | 53.18200 | -2.22579 | 33152 ft | 431 kts | 159° |
| 2026-05-01 13:48 | 53.12833 | -2.18050 | 33146 ft | 434 kts | 149° |
| 2026-05-01 13:49 | 53.07932 | -2.12140 | 33138 ft | 435 kts | 146° |
| 2026-05-01 13:49 | 53.03067 | -2.06183 | 33137 ft | 435 kts | 146° |
| 2026-05-01 13:50 | 52.98181 | -2.00248 | 33146 ft | 435 kts | 146° |
| 2026-05-01 13:50 | 52.93320 | -1.94368 | 33143 ft | 435 kts | 146° |
| 2026-05-01 13:51 | 52.88424 | -1.88463 | 33141 ft | 435 kts | 146° |
| 2026-05-01 13:51 | 52.83498 | -1.82538 | 33145 ft | 435 kts | 146° |
| 2026-05-01 13:52 | 52.78602 | -1.76667 | 33141 ft | 434 kts | 146° |
| 2026-05-01 13:52 | 52.73582 | -1.71008 | 33168 ft | 432 kts | 153° |
| 2026-05-01 13:53 | 52.68290 | -1.66446 | 33171 ft | 431 kts | 155° |
| 2026-05-01 13:53 | 52.60342 | -1.59633 | 33178 ft | 431 kts | 155° |
| 2026-05-01 13:54 | 52.55010 | -1.55068 | 33175 ft | 430 kts | 155° |
| 2026-05-01 13:54 | 52.49731 | -1.50560 | 33155 ft | 429 kts | 155° |
| 2026-05-01 13:55 | 52.47069 | -1.48292 | 32749 ft | 427 kts | 155° |
| 2026-05-01 13:55 | 52.44421 | -1.46039 | 31934 ft | 430 kts | 155° |
| 2026-05-01 13:55 | 52.41743 | -1.43765 | 30868 ft | 434 kts | 155° |
| 2026-05-01 13:55 | 52.39965 | -1.42257 | 29877 ft | 437 kts | 155° |
| 2026-05-01 13:56 | 52.37237 | -1.39946 | 28356 ft | 440 kts | 155° |
| 2026-05-01 13:56 | 52.34541 | -1.37663 | 27232 ft | 433 kts | 155° |
| 2026-05-01 13:56 | 52.31880 | -1.35410 | 26198 ft | 425 kts | 155° |
| 2026-05-01 13:56 | 52.29210 | -1.33155 | 25153 ft | 419 kts | 154° |
| 2026-05-01 13:57 | 52.26731 | -1.30927 | 24199 ft | 413 kts | 152° |
| 2026-05-01 13:57 | 52.24231 | -1.28538 | 23108 ft | 408 kts | 152° |
| 2026-05-01 13:57 | 52.21839 | -1.26228 | 22078 ft | 400 kts | 152° |
| 2026-05-01 13:57 | 52.19462 | -1.23949 | 21042 ft | 394 kts | 152° |
| 2026-05-01 13:58 | 52.17107 | -1.21712 | 20026 ft | 389 kts | 152° |
| 2026-05-01 13:58 | 52.14785 | -1.19522 | 19054 ft | 383 kts | 152° |
| 2026-05-01 13:58 | 52.12458 | -1.17338 | 18033 ft | 378 kts | 152° |
| 2026-05-01 13:58 | 52.10213 | -1.15234 | 17020 ft | 373 kts | 152° |
| 2026-05-01 13:59 | 52.07995 | -1.13159 | 16332 ft | 360 kts | 152° |
| 2026-05-01 13:59 | 52.05890 | -1.11189 | 16018 ft | 339 kts | 152° |
| 2026-05-01 13:59 | 52.03836 | -1.09274 | 15838 ft | 346 kts | 152° |
| 2026-05-01 13:59 | 52.01844 | -1.07055 | 15466 ft | 349 kts | 139° |
| 2026-05-01 14:00 | 52.00392 | -1.03920 | 15106 ft | 348 kts | 120° |
| 2026-05-01 14:00 | 51.99688 | -1.00149 | 14892 ft | 357 kts | 101° |
| 2026-05-01 14:00 | 51.99621 | -0.96077 | 14664 ft | 362 kts | 94° |
| 2026-05-01 14:00 | 51.99634 | -0.92005 | 14430 ft | 359 kts | 94° |
| 2026-05-01 14:01 | 51.99649 | -0.87973 | 14208 ft | 358 kts | 94° |
| 2026-05-01 14:01 | 51.99658 | -0.83935 | 13981 ft | 357 kts | 94° |
| 2026-05-01 14:01 | 51.99661 | -0.79913 | 13731 ft | 355 kts | 94° |
| 2026-05-01 14:01 | 51.99661 | -0.75900 | 13501 ft | 354 kts | 94° |
| 2026-05-01 14:02 | 51.99657 | -0.71920 | 13280 ft | 353 kts | 94° |
| 2026-05-01 14:02 | 51.99651 | -0.67939 | 13043 ft | 351 kts | 94° |
| 2026-05-01 14:02 | 51.99644 | -0.63981 | 12825 ft | 350 kts | 94° |
| 2026-05-01 14:02 | 51.99635 | -0.60035 | 12603 ft | 349 kts | 94° |
| 2026-05-01 14:03 | 51.99626 | -0.56141 | 12376 ft | 348 kts | 94° |
| 2026-05-01 14:03 | 51.99615 | -0.52218 | 12172 ft | 346 kts | 94° |
| 2026-05-01 14:03 | 51.99604 | -0.48376 | 12048 ft | 332 kts | 94° |
| 2026-05-01 14:03 | 51.99596 | -0.44744 | 11877 ft | 313 kts | 95° |
| 2026-05-01 14:04 | 51.99586 | -0.41176 | 11487 ft | 302 kts | 95° |
| 2026-05-01 14:04 | 51.99569 | -0.37925 | 11108 ft | 292 kts | 95° |
| 2026-05-01 14:04 | 51.99532 | -0.34649 | 10986 ft | 294 kts | 96° |
| 2026-05-01 14:04 | 51.99483 | -0.31322 | 10899 ft | 294 kts | 96° |
| 2026-05-01 14:05 | 51.99437 | -0.28035 | 10706 ft | 291 kts | 95° |
| 2026-05-01 14:05 | 51.99395 | -0.24752 | 10499 ft | 290 kts | 95° |
| 2026-05-01 14:05 | 51.99352 | -0.21476 | 10240 ft | 290 kts | 95° |
| 2026-05-01 14:05 | 51.99311 | -0.18222 | 9886 ft | 287 kts | 95° |
| 2026-05-01 14:06 | 51.99271 | -0.14996 | 9363 ft | 283 kts | 95° |
| 2026-05-01 14:06 | 51.99230 | -0.11874 | 9196 ft | 287 kts | 95° |
| 2026-05-01 14:06 | 51.99185 | -0.08626 | 9151 ft | 288 kts | 95° |
| 2026-05-01 14:06 | 51.99139 | -0.05386 | 9171 ft | 287 kts | 95° |
| 2026-05-01 14:07 | 51.99095 | -0.02130 | 9173 ft | 290 kts | 95° |
| 2026-05-01 14:07 | 51.99161 | 0.01133 | 9166 ft | 291 kts | 82° |
| 2026-05-01 14:07 | 51.99982 | 0.04154 | 9170 ft | 299 kts | 56° |
| 2026-05-01 14:08 | 52.03552 | 0.07560 | 9176 ft | 307 kts | 16° |
| 2026-05-01 14:08 | 52.05613 | 0.08481 | 9151 ft | 307 kts | 16° |
| 2026-05-01 14:08 | 52.07645 | 0.09381 | 9061 ft | 296 kts | 16° |
| 2026-05-01 14:08 | 52.09572 | 0.10239 | 8917 ft | 280 kts | 16° |
| 2026-05-01 14:09 | 52.11412 | 0.11056 | 8650 ft | 269 kts | 16° |
| 2026-05-01 14:09 | 52.13212 | 0.11870 | 8171 ft | 268 kts | 16° |
| 2026-05-01 14:09 | 52.15006 | 0.12669 | 7740 ft | 266 kts | 12° |
| 2026-05-01 14:09 | 52.16799 | 0.12640 | 7329 ft | 259 kts | 341° |
| 2026-05-01 14:10 | 52.18314 | 0.11213 | 7193 ft | 254 kts | 310° |
| 2026-05-01 14:10 | 52.19184 | 0.08782 | 7154 ft | 245 kts | 279° |
| 2026-05-01 14:10 | 52.19180 | 0.06095 | 7152 ft | 237 kts | 249° |
| 2026-05-01 14:10 | 52.18342 | 0.03888 | 7168 ft | 230 kts | 218° |
| 2026-05-01 14:11 | 52.16939 | 0.02793 | 7159 ft | 225 kts | 187° |
| 2026-05-01 14:11 | 52.13776 | 0.02692 | 7158 ft | 225 kts | 181° |
| 2026-05-01 14:11 | 52.12207 | 0.02684 | 7155 ft | 226 kts | 181° |
| 2026-05-01 14:12 | 52.10639 | 0.02683 | 7154 ft | 225 kts | 181° |
| 2026-05-01 14:12 | 52.09083 | 0.02680 | 7153 ft | 227 kts | 181° |
| 2026-05-01 14:12 | 52.07496 | 0.02671 | 7037 ft | 224 kts | 181° |
| 2026-05-01 14:12 | 52.05959 | 0.02668 | 6788 ft | 222 kts | 181° |
| 2026-05-01 14:13 | 52.04389 | 0.02681 | 6463 ft | 223 kts | 181° |
| 2026-05-01 14:13 | 52.03363 | 0.02692 | 6242 ft | 222 kts | 181° |
| 2026-05-01 14:13 | 52.01288 | 0.02695 | 5873 ft | 223 kts | 181° |
| 2026-05-01 14:13 | 51.99739 | 0.02690 | 5552 ft | 222 kts | 181° |
| 2026-05-01 14:14 | 51.98186 | 0.02689 | 5278 ft | 223 kts | 181° |
| 2026-05-01 14:14 | 51.96635 | 0.02693 | 5071 ft | 221 kts | 181° |
| 2026-05-01 14:14 | 51.95118 | 0.02697 | 4995 ft | 218 kts | 181° |
| 2026-05-01 14:14 | 51.93570 | 0.02705 | 4983 ft | 223 kts | 181° |
| 2026-05-01 14:15 | 51.92016 | 0.02714 | 4995 ft | 222 kts | 181° |
| 2026-05-01 14:15 | 51.90491 | 0.02721 | 4987 ft | 221 kts | 181° |
| 2026-05-01 14:15 | 51.88960 | 0.02590 | 4967 ft | 219 kts | 185° |
| 2026-05-01 14:15 | 51.87438 | 0.02371 | 4721 ft | 220 kts | 186° |
| 2026-05-01 14:16 | 51.85911 | 0.02138 | 4479 ft | 221 kts | 186° |
| 2026-05-01 14:16 | 51.84385 | 0.01893 | 4246 ft | 222 kts | 186° |
| 2026-05-01 14:16 | 51.82843 | 0.01631 | 4017 ft | 222 kts | 188° |
| 2026-05-01 14:16 | 51.81421 | 0.00763 | 3814 ft | 221 kts | 210° |
| 2026-05-01 14:17 | 51.80121 | -0.00576 | 3540 ft | 221 kts | 211° |
| 2026-05-01 14:17 | 51.78878 | -0.01883 | 3387 ft | 206 kts | 211° |
| 2026-05-01 14:17 | 51.77701 | -0.03102 | 3282 ft | 194 kts | 211° |
| 2026-05-01 14:17 | 51.76601 | -0.04258 | 3167 ft | 183 kts | 211° |
| 2026-05-01 14:18 | 51.75564 | -0.05360 | 2932 ft | 176 kts | 211° |
| 2026-05-01 14:18 | 51.74513 | -0.06235 | 2637 ft | 170 kts | 186° |
| 2026-05-01 14:18 | 51.73405 | -0.05863 | 2477 ft | 164 kts | 143° |
| 2026-05-01 14:18 | 51.72894 | -0.04890 | 2495 ft | 178 kts | 117° |
| 2026-05-01 14:19 | 51.72909 | -0.02244 | 2473 ft | 191 kts | 73° |
| 2026-05-01 14:19 | 51.73413 | -0.00271 | 2476 ft | 191 kts | 68° |
| 2026-05-01 14:19 | 51.74126 | 0.01560 | 2449 ft | 191 kts | 53° |
| 2026-05-01 14:19 | 51.75046 | 0.03151 | 2512 ft | 197 kts | 47° |
| 2026-05-01 14:20 | 51.76027 | 0.04653 | 2487 ft | 193 kts | 46° |
| 2026-05-01 14:20 | 51.77958 | 0.07576 | 2488 ft | 190 kts | 45° |
| 2026-05-01 14:20 | 51.78931 | 0.09037 | 2482 ft | 192 kts | 46° |
| 2026-05-01 14:21 | 51.79901 | 0.10505 | 2457 ft | 190 kts | 46° |
| 2026-05-01 14:21 | 51.80851 | 0.11942 | 2270 ft | 185 kts | 46° |
| 2026-05-01 14:21 | 51.81757 | 0.13313 | 2018 ft | 172 kts | 45° |
| 2026-05-01 14:22 | 51.83390 | 0.15768 | 1593 ft | 148 kts | 48° |
| 2026-05-01 14:22 | 51.84114 | 0.16865 | 1402 ft | 147 kts | 46° |
| 2026-05-01 14:22 | 51.84863 | 0.17994 | 1200 ft | 147 kts | 48° |
| 2026-05-01 14:22 | 51.85616 | 0.19130 | 987 ft | 149 kts | 46° |
| 2026-05-01 14:23 | 51.86362 | 0.20250 | 814 ft | 146 kts | 45° |
| 2026-05-01 14:23 | 51.87116 | 0.21364 | 530 ft | 148 kts | 48° |
| 2026-05-01 14:23 | 51.87842 | 0.22482 | 357 ft | 141 kts | 46° |
| 2026-05-01 14:23 | 51.88465 | 0.23429 | 345 ft | 98 kts | 43° |
| 2026-05-01 14:24 | 51.88850 | 0.24010 | 335 ft | 55 kts | 39° |
| 2026-05-01 14:24 | 51.89016 | 0.24281 | 347 ft | 18 kts | 81° |
| 2026-05-01 14:24 | 51.88976 | 0.24381 | 346 ft | 12 kts | 129° |
| 2026-05-01 14:24 | 51.88951 | 0.24430 | 345 ft | 0 kts | 131° |
| 2026-05-01 14:26 | 51.88933 | 0.24463 | 342 ft | 8 kts | 131° |
| 2026-05-01 14:26 | 51.88911 | 0.24548 | 351 ft | 9 kts | 75° |
| 2026-05-01 14:27 | 51.88964 | 0.24654 | 350 ft | 16 kts | 45° |
| 2026-05-01 14:27 | 51.89068 | 0.24807 | 348 ft | 24 kts | 42° |
| 2026-05-01 14:27 | 51.89182 | 0.24983 | 354 ft | 18 kts | 47° |
| 2026-05-01 14:28 | 51.89188 | 0.25271 | 346 ft | 14 kts | 127° |
| 2026-05-01 14:28 | 51.89127 | 0.25408 | 347 ft | 16 kts | 131° |
| 2026-05-01 14:28 | 51.89061 | 0.25526 | 347 ft | 11 kts | 133° |
| 2026-05-01 14:28 | 51.89001 | 0.25629 | 348 ft | 14 kts | 133° |
| 2026-05-01 14:29 | 51.88973 | 0.25685 | 350 ft | 1 kts | 106° |
| 2026-05-01 14:29 | 51.88985 | 0.25712 | 347 ft | 5 kts | 50° |
| 2026-05-01 14:30 | 51.89008 | 0.25748 | 353 ft | 0 kts | 44° |
| 2026-05-01 14:35 | 51.89008 | 0.25747 | 353 ft | 0 kts | 44° |